createdAt,value
2019-01-23T00:02:52.470Z,8.30
2019-01-23T00:12:57.618Z,8.80
2019-01-23T00:23:02.759Z,8.73
2019-01-23T00:33:07.955Z,8.00
2019-01-23T00:43:13.104Z,8.93
2019-01-23T00:53:18.280Z,7.30
2019-01-23T01:03:23.424Z,8.33
2019-01-23T01:13:28.906Z,8.43
2019-01-23T01:23:34.056Z,8.07
2019-01-23T01:33:39.214Z,7.63
2019-01-23T01:43:44.349Z,7.50
2019-01-23T01:53:49.487Z,7.50
2019-01-23T04:01:28.946Z,7.20
2019-01-23T04:11:34.094Z,7.23
2019-01-23T04:21:39.241Z,6.27
2019-01-23T04:31:44.449Z,7.30
2019-01-23T04:41:49.583Z,6.17
2019-01-23T04:52:13.784Z,6.17
2019-01-23T05:02:20.000Z,6.87
2019-01-23T05:12:26.737Z,7.07
2019-01-23T05:22:32.366Z,6.60
2019-01-23T05:32:37.532Z,6.73
2019-01-23T05:42:42.663Z,6.90
2019-01-23T05:52:49.208Z,6.17
2019-01-23T06:02:55.431Z,7.00
2019-01-23T06:13:00.575Z,5.80
2019-01-23T06:23:05.706Z,6.87
2019-01-23T06:33:11.268Z,6.30
2019-01-23T06:43:16.403Z,6.20
2019-01-23T06:53:21.544Z,6.60
2019-01-23T07:03:26.755Z,6.50
2019-01-23T07:13:31.898Z,6.70
2019-01-23T07:23:37.039Z,6.17
2019-01-23T07:33:42.226Z,12.20
2019-01-23T07:43:47.378Z,8.90
2019-01-23T07:53:52.861Z,8.97
2019-01-23T08:03:58.035Z,7.83
2019-01-23T08:14:03.190Z,7.77
2019-01-23T08:24:08.363Z,7.13
2019-01-23T08:34:13.534Z,7.77
2019-01-23T08:44:18.669Z,7.80
2019-01-23T08:54:24.977Z,7.37
2019-01-23T09:04:30.131Z,7.67
2019-01-23T09:14:35.300Z,7.70
2019-01-23T09:24:40.468Z,7.57
2019-01-23T09:35:39.099Z,7.97
2019-01-23T09:46:12.671Z,6.27
2019-01-23T09:56:19.179Z,6.50
2019-01-23T10:06:25.839Z,7.20
2019-01-23T10:16:30.999Z,6.80
2019-01-23T10:26:36.156Z,7.77
2019-01-23T10:36:41.360Z,6.67
2019-01-23T10:46:46.499Z,6.93
2019-01-23T10:56:51.642Z,6.67
2019-01-23T11:06:56.843Z,6.87
2019-01-23T11:17:02.291Z,6.30
2019-01-23T11:27:07.466Z,6.60
2019-01-23T11:37:12.630Z,6.17
2019-01-23T11:47:17.811Z,7.13
2019-01-23T11:57:22.979Z,6.83
2019-01-23T12:07:28.550Z,6.63
2019-01-23T12:17:33.788Z,6.47
2019-01-23T12:27:39.003Z,6.30
2019-01-23T12:37:44.144Z,6.50
2019-01-23T12:47:49.289Z,6.83
2019-01-23T12:57:54.494Z,6.10
2019-01-23T13:07:59.659Z,6.17
2019-01-23T13:18:04.800Z,6.30
2019-01-23T13:28:09.956Z,6.37
2019-01-23T13:38:17.480Z,6.17
2019-01-23T13:48:22.619Z,6.07
2019-01-23T13:58:27.755Z,6.77
2019-01-23T14:08:32.935Z,5.80
2019-01-23T14:18:38.158Z,6.87
2019-01-23T14:28:43.337Z,5.97
2019-01-23T14:38:48.527Z,5.70
2019-01-23T14:48:53.688Z,6.30
2019-01-23T14:58:58.843Z,6.33
2019-01-23T15:09:05.008Z,6.70
2019-01-23T15:19:11.932Z,6.50
2019-01-23T15:29:17.168Z,6.10
2019-01-23T15:39:22.304Z,6.73
2019-01-23T15:49:28.571Z,6.50
2019-01-23T15:59:33.714Z,5.77
2019-01-23T16:09:38.880Z,6.90
2019-01-23T16:19:44.038Z,6.00
2019-01-23T16:29:49.200Z,6.40
2019-01-23T16:39:54.349Z,5.80
2019-01-23T16:49:59.540Z,5.63
2019-01-23T17:00:07.558Z,5.83
2019-01-23T17:10:15.824Z,6.47
2019-01-23T17:20:23.583Z,5.83
2019-01-23T17:30:28.757Z,5.90
2019-01-23T17:40:33.972Z,5.47
2019-01-23T17:50:39.346Z,5.40
2019-01-23T18:01:10.174Z,5.63
2019-01-23T18:11:15.756Z,5.67
2019-01-23T18:21:20.918Z,6.00
2019-01-23T18:31:42.603Z,5.90
2019-01-23T18:42:50.530Z,5.80
2019-01-23T18:52:55.667Z,5.77
2019-01-23T19:03:06.867Z,5.20
2019-01-23T19:13:08.455Z,5.93
2019-01-23T19:23:14.020Z,5.70
2019-01-23T19:33:19.184Z,6.13
2019-01-23T19:43:24.691Z,5.37
2019-01-23T19:53:29.868Z,5.50
2019-01-23T20:03:36.508Z,5.40
2019-01-23T20:13:41.682Z,5.57
2019-01-23T20:23:46.820Z,6.00
2019-01-23T20:33:52.044Z,7.00
2019-01-23T20:43:57.231Z,6.43
2019-01-23T20:54:02.420Z,7.20
2019-01-23T21:04:07.565Z,6.60
2019-01-23T21:14:12.855Z,7.63
2019-01-23T21:24:18.659Z,6.93
2019-01-23T21:34:23.761Z,8.27
2019-01-23T21:44:28.924Z,7.03
2019-01-23T21:54:34.171Z,7.30
2019-01-23T22:04:40.420Z,7.50
2019-01-23T22:14:45.557Z,7.27
2019-01-23T22:24:50.838Z,8.00
2019-01-23T22:34:56.020Z,7.63
2019-01-23T22:45:01.157Z,8.07
2019-01-23T22:55:07.967Z,7.40
2019-01-23T23:05:13.114Z,7.53
2019-01-23T23:15:18.319Z,7.97
2019-01-23T23:25:23.729Z,6.97
2019-01-23T23:35:29.272Z,7.47
2019-01-23T23:45:34.414Z,7.50
2019-01-23T23:55:39.559Z,7.47
